Flight Track Log - Related Links

Times and Time Zones

All times are in EDT time to prevent confusion due to time zone crossing. See the SWA2728 flight status page for this flight to view local times or setup timezone preferences in your user account.

Time Position Orientation Groundspeed Altitude Reporting Facility
EDT Latitude Longitude Course Direction KTS MPH feet Rate Location/Type
Sun 02:11:25 PM 40.6500 -74.1833 229° Southwest 161 185 1,500  Level New York TRACON
Sun 02:12:25 PM 40.6167 -74.2333 229° Southwest 227 261 3,500 2,150 Climbing New York TRACON
Sun 02:13:25 PM 40.6333 -74.3167 285° West 261 300 5,800 2,450 Climbing New York TRACON
Sun 02:14:25 PM 40.6667 -74.4167 294° West 286 329 8,400 2,750 Climbing New York TRACON
Sun 02:15:25 PM 40.6833 -74.5167 282° West 296 341 11,300 2,750 Climbing New York TRACON
Sun 02:16:25 PM 40.7500 -74.5833 323° Northwest 293 337 13,900 2,027 Climbing New York TRACON
Sun 02:17:53 PM 40.8489 -74.6803 323° Northwest 322 371 16,300 1,240 Climbing New York Center
Sun 02:18:55 PM 40.8408 -74.8003 265° West 308 354 17,000 347 Climbing New York Center
Sun 02:19:54 PM 40.8214 -74.9392 260° West 335 386 17,000 1,180 Level New York Center
Sun 02:21:53 PM 40.7900 -75.2250 262° West 403 464 20,500 1,800 Climbing New York Center
Sun 02:22:54 PM 40.7633 -75.3767 257° West 410 472 22,400 1,916 Climbing New York Center
Sun 02:23:52 PM 40.7161 -75.5214 247° West 415 478 24,300 1,950 Climbing New York Center
Sun 02:24:54 PM 40.6603 -75.6653 243° Southwest 425 489 26,300 1,602 Climbing New York Center
Sun 02:27:03 PM 40.5414 -75.9786 252° West 447 514 29,400 1,508 Climbing Cleveland Center
Sun 02:28:05 PM 40.4719 -76.1594 243° Southwest 458 527 31,100 1,500 Climbing Cleveland Center
Sun 02:29:07 PM 40.4136 -76.3111 243° Southwest 464 534 32,500 1,321 Climbing Cleveland Center
Sun 02:29:54 PM 40.3725 -76.4131 242° Southwest 462 532 33,500 1,371 Climbing New York Center
Sun 02:30:52 PM 40.3153 -76.5608 243° Southwest 462 532 34,900 1,261 Climbing New York Center
Sun 02:31:53 PM 40.2706 -76.7097 249° West 457 526 36,000 537 Climbing New York Center
Sun 02:32:55 PM 40.2353 -76.8669 254° West 444 511 36,000  Level New York Center
Sun 02:33:53 PM 40.1983 -77.0161 252° West 439 505 36,000  Level New York Center
Sun 02:34:54 PM 40.1611 -77.1675 252° West 434 499 36,000  Level New York Center
Sun 02:35:53 PM 40.1228 -77.3325 253° West 434 499 36,000  Level New York Center
Sun 02:37:24 PM 40.0719 -77.5489 253° West 439 505 36,000  Level Cleveland Center
Sun 02:38:26 PM 40.0678 -77.7078 268° West 443 510 36,000  Level Cleveland Center
Sun 02:39:28 PM 40.0656 -77.8636 269° West 436 502 36,000  Level Cleveland Center
Sun 02:40:30 PM 40.0653 -78.0411 270° West 436 502 36,000  Level Cleveland Center
Sun 02:41:32 PM 40.0633 -78.2008 269° West 436 502 36,000  Level Cleveland Center
Sun 02:42:34 PM 40.0625 -78.3611 270° West 438 504 36,000  Level Cleveland Center
Sun 02:43:36 PM 40.0600 -78.5542 269° West 441 507 36,000  Level Cleveland Center
Sun 02:44:38 PM 40.0594 -78.7114 270° West 441 507 36,000  Level Cleveland Center
Sun 02:45:41 PM 40.0575 -78.8697 269° West 439 505 36,000  Level Cleveland Center
Sun 02:46:43 PM 40.0567 -79.0300 270° West 440 506 36,000  Level Cleveland Center
Sun 02:47:45 PM 40.0522 -79.2000 268° West 440 506 36,000  Level Cleveland Center
Sun 02:48:47 PM 40.0506 -79.3586 269° West 439 505 36,000  Level Cleveland Center
Sun 02:49:49 PM 40.0503 -79.5150 270° West 436 502 36,000  Level Cleveland Center
Sun 02:50:51 PM 40.0497 -79.6711 270° West 433 498 36,000  Level Cleveland Center
Sun 02:51:53 PM 40.0478 -79.8269 269° West 433 498 36,000  Level Cleveland Center
Sun 02:52:55 PM 40.0461 -80.0150 269° West 431 496 36,000  Level Cleveland Center
Sun 02:53:57 PM 40.0444 -80.1728 269° West 431 496 36,000  Level Cleveland Center
Sun 02:54:59 PM 40.0436 -80.3289 270° West 430 495 36,000  Level Cleveland Center
Sun 02:56:01 PM 40.0406 -80.4872 269° West 434 499 36,000  Level Cleveland Center
Sun 02:57:04 PM 40.0392 -80.6436 269° West 433 498 36,000  Level Cleveland Center
Sun 02:58:06 PM 40.0369 -80.8003 269° West 432 497 36,000  Level Cleveland Center
Sun 02:59:08 PM 40.0336 -80.9575 268° West 433 498 36,000  Level Cleveland Center
Sun 03:00:10 PM 40.0308 -81.1447 269° West 433 498 36,000  Level Cleveland Center
Sun 03:01:12 PM 40.0275 -81.2994 268° West 432 497 36,000  Level Cleveland Center
Sun 03:02:14 PM 40.0244 -81.4394 268° West 429 494 36,000  Level Cleveland Center
Sun 03:03:12 PM 40.0217 -81.6003 269° West 429 494 36,000  Level Indianapolis Center
Sun 03:04:14 PM 40.0172 -81.7561 268° West 428 493 36,000  Level Indianapolis Center
Sun 03:05:16 PM 40.0128 -81.9303 268° West 427 491 36,000  Level Indianapolis Center
Sun 03:06:18 PM 40.0089 -82.0836 268° West 426 490 36,000  Level Indianapolis Center
Sun 03:07:20 PM 40.0056 -82.2367 268° West 425 489 36,000  Level Indianapolis Center
Sun 03:08:22 PM 40.0000 -82.3903 267° West 425 489 36,000  Level Indianapolis Center
Sun 03:09:24 PM 39.9958 -82.5447 268° West 425 489 36,000  Level Indianapolis Center
Sun 03:10:26 PM 39.9917 -82.6992 268° West 426 490 36,000  Level Indianapolis Center
Sun 03:11:28 PM 39.9850 -82.8856 267° West 427 491 36,000  Level Indianapolis Center
Sun 03:12:30 PM 39.9803 -83.0392 268° West 427 491 36,000  Level Indianapolis Center
Sun 03:13:32 PM 39.9750 -83.1933 267° West 427 491 36,000  Level Indianapolis Center
Sun 03:14:35 PM 39.9706 -83.3469 268° West 427 491 36,000  Level Indianapolis Center
Sun 03:15:37 PM 39.9639 -83.5328 267° West 437 503 36,000  Level Indianapolis Center
Sun 03:16:39 PM 39.9558 -83.6864 266° West 437 503 36,000  Level Indianapolis Center
Sun 03:17:41 PM 39.9483 -83.8406 266° West 436 502 36,000  Level Indianapolis Center
Sun 03:18:43 PM 39.9428 -83.9969 267° West 436 502 36,000  Level Indianapolis Center
Sun 03:19:45 PM 39.9356 -84.1522 267° West 435 501 36,000  Level Indianapolis Center
Sun 03:20:47 PM 39.9269 -84.3389 267° West 435 501 36,000  Level Indianapolis Center
Sun 03:21:49 PM 39.9197 -84.4944 267° West 434 499 36,000  Level Indianapolis Center
Sun 03:22:51 PM 39.9125 -84.6494 267° West 434 499 36,000  Level Indianapolis Center
Sun 03:23:53 PM 39.9042 -84.8036 266° West 432 497 36,000  Level Indianapolis Center
Sun 03:24:56 PM 39.8958 -84.9725 266° West 432 497 36,000  Level Indianapolis Center
Sun 03:25:58 PM 39.8869 -85.1264 266° West 431 496 36,000  Level Indianapolis Center
Sun 03:27:00 PM 39.8794 -85.2797 266° West 429 494 36,000  Level Indianapolis Center
Sun 03:28:03 PM 39.8669 -85.4319 264° West 427 491 36,000  Level Indianapolis Center
Sun 03:29:04 PM 39.8481 -85.6106 262° West 421 484 36,000  Level Indianapolis Center
Sun 03:30:06 PM 39.8339 -85.7586 263° West 417 480 36,000  Level Indianapolis Center
Sun 03:31:08 PM 39.8394 -85.9064 273° West 417 480 36,000  Level Indianapolis Center
Sun 03:32:10 PM 39.8564 -86.0553 278° West 417 480 36,000  Level Indianapolis Center
Sun 03:33:12 PM 39.8747 -86.2047 279° West 420 483 36,000  Level Indianapolis Center
Sun 03:34:14 PM 39.8950 -86.3833 278° West 423 487 36,000  Level Indianapolis Center
Sun 03:35:16 PM 39.9011 -86.5336 273° West 424 488 36,000  Level Indianapolis Center
Sun 03:36:18 PM 39.9022 -86.6831 271° West 423 487 36,000  Level Indianapolis Center
Sun 03:37:20 PM 39.8928 -86.8331 265° West 421 484 36,000 629 Level Indianapolis Center
Sun 03:38:22 PM 39.8742 -87.0133 262° West 421 484 37,300 912 Climbing Indianapolis Center
Sun 03:39:25 PM 39.8519 -87.1594 259° West 417 480 37,900 336 Climbing Indianapolis Center
Sun 03:40:27 PM 39.8736 -87.3067 281° West 425 489 38,000 48 Climbing Indianapolis Center
Sun 03:41:29 PM 39.9206 -87.4497 293° West 428 493 38,000  Level Indianapolis Center
Sun 03:42:31 PM 39.9658 -87.5947 292° West 429 494 38,000  Level Indianapolis Center
Sun 03:43:33 PM 40.0058 -87.7411 290° West 429 494 38,000  Level Indianapolis Center
Sun 03:44:57 PM 40.0078 -87.9536 271° West 422 486 38,000  Level Chicago Center
Sun 03:45:59 PM 39.9828 -88.1369 260° West 427 491 38,000  Level Chicago Center
Sun 03:47:01 PM 39.9617 -88.2886 260° West 426 490 38,000  Level Chicago Center
Sun 03:48:03 PM 39.9392 -88.4453 259° West 434 499 38,000  Level Chicago Center
Sun 03:49:05 PM 39.9181 -88.5997 260° West 434 499 38,000  Level Chicago Center
Sun 03:50:07 PM 39.8956 -88.7533 259° West 433 498 38,000  Level Chicago Center
Sun 03:51:09 PM 39.8747 -88.9075 260° West 433 498 38,000  Level Chicago Center
Sun 03:52:12 PM 39.8514 -89.0608 259° West 432 497 38,000  Level Chicago Center
Sun 03:53:13 PM 39.8247 -89.2442 259° West 431 496 38,000  Level Chicago Center
Sun 03:54:22 PM 39.8014 -89.3969 259° West 431 496 38,000  Level Kansas City Center
Sun 03:55:23 PM 39.7789 -89.5514 259° West 431 496 38,000  Level Kansas City Center
Sun 03:56:26 PM 39.7558 -89.7058 259° West 432 497 38,000  Level Kansas City Center
Sun 03:58:23 PM 39.7094 -90.0111 259° West 432 497 38,000  Level Chicago Center
Sun 03:59:25 PM 39.6847 -90.1644 258° West 432 497 38,000  Level Chicago Center
Sun 04:00:27 PM 39.6567 -90.3469 259° West 430 495 38,000  Level Chicago Center
Sun 04:01:29 PM 39.6325 -90.5006 259° West 431 496 38,000  Level Chicago Center
Sun 04:03:41 PM 39.5814 -90.8292 258° West 432 497 38,000  Level Kansas City Center
Sun 04:04:43 PM 39.5567 -90.9814 258° West 432 497 38,000  Level Kansas City Center
Sun 04:05:43 PM 39.5322 -91.1306 258° West 432 497 38,000  Level Kansas City Center
Sun 04:06:48 PM 39.5069 -91.2822 258° West 432 497 38,000  Level Kansas City Center
Sun 04:07:48 PM 39.4822 -91.4325 258° West 431 496 38,000  Level Kansas City Center
Sun 04:08:52 PM 39.4511 -91.6156 258° West 432 497 38,000  Level Kansas City Center
Sun 04:09:52 PM 39.4236 -91.7747 257° West 432 497 38,000  Level Kansas City Center
Sun 04:10:54 PM 39.3981 -91.9247 258° West 432 497 38,000  Level Kansas City Center
Sun 04:11:57 PM 39.3728 -92.0736 258° West 431 496 38,000  Level Kansas City Center
Sun 04:12:59 PM 39.3469 -92.2222 257° West 425 489 38,000  Level Kansas City Center
Sun 04:14:02 PM 39.3203 -92.3711 257° West 426 490 38,000  Level Kansas City Center
Sun 04:15:03 PM 39.2936 -92.5206 257° West 426 490 38,000  Level Kansas City Center
Sun 04:16:04 PM 39.2611 -92.7064 257° West 426 490 38,000  Level Kansas City Center
Sun 04:17:07 PM 39.2356 -92.8469 257° West 426 490 38,000  Level Kansas City Center
Sun 04:18:09 PM 39.2081 -92.9961 257° West 427 491 38,000  Level Kansas City Center
Sun 04:19:12 PM 39.1817 -93.1436 257° West 426 490 38,000  Level Kansas City Center
Sun 04:20:14 PM 39.1539 -93.2917 256° West 427 491 38,000  Level Kansas City Center
Sun 04:21:15 PM 39.1239 -93.4514 256° West 425 489 38,000  Level Kansas City Center
Sun 04:22:18 PM 39.0967 -93.5967 256° West 422 486 38,000  Level Kansas City Center
Sun 04:23:19 PM 39.0703 -93.7400 257° West 417 480 38,000  Level Kansas City Center
Sun 04:24:20 PM 39.0383 -93.9103 256° West 413 475 38,000  Level Kansas City Center
Sun 04:25:24 PM 39.0106 -94.0553 256° West 412 474 38,000  Level Kansas City Center
Sun 04:26:25 PM 38.9836 -94.1939 256° West 410 472 38,000  Level Kansas City Center
Sun 04:27:29 PM 38.9558 -94.3339 256° West 409 471 38,000  Level Kansas City Center
Sun 04:28:30 PM 38.9275 -94.4756 256° West 406 467 38,000  Level Kansas City Center
Sun 04:29:31 PM 38.9008 -94.6133 256° West 404 465 38,000  Level Kansas City Center
Sun 04:30:35 PM 38.8678 -94.7803 256° West 404 465 38,000  Level Kansas City Center
Sun 04:31:36 PM 38.8392 -94.9206 255° West 404 465 38,000  Level Kansas City Center
Sun 04:32:37 PM 38.8108 -95.0625 256° West 405 466 38,000  Level Kansas City Center
Sun 04:33:40 PM 38.7825 -95.2036 256° West 406 467 38,000  Level Kansas City Center
Sun 04:34:42 PM 38.7542 -95.3439 256° West 406 467 38,000  Level Kansas City Center
Sun 04:35:43 PM 38.7258 -95.4844 256° West 406 467 38,000  Level Kansas City Center
Sun 04:36:47 PM 38.6972 -95.6239 255° West 405 466 38,000  Level Kansas City Center
Sun 04:37:49 PM 38.6628 -95.7903 255° West 405 466 38,000  Level Kansas City Center
Sun 04:38:49 PM 38.6347 -95.9303 256° West 405 466 38,000  Level Kansas City Center
Sun 04:39:53 PM 38.6044 -96.0664 254° West 404 465 38,000  Level Kansas City Center
Sun 04:40:55 PM 38.5756 -96.2028 255° West 398 458 38,000  Level Kansas City Center
Sun 04:41:56 PM 38.5467 -96.3394 255° West 398 458 38,000  Level Kansas City Center
Sun 04:42:59 PM 38.5167 -96.4753 254° West 398 458 38,000  Level Kansas City Center
Sun 04:44:00 PM 38.4817 -96.6400 255° West 399 459 38,000  Level Kansas City Center
Sun 04:45:04 PM 38.4517 -96.7761 254° West 399 459 38,000  Level Kansas City Center
Sun 04:46:05 PM 38.4194 -96.9200 254° West 399 459 38,000  Level Kansas City Center
Sun 04:47:08 PM 38.3897 -97.0564 255° West 399 459 38,000  Level Kansas City Center
Sun 04:48:08 PM 38.3600 -97.1925 254° West 400 460 38,000  Level Kansas City Center
Sun 04:49:12 PM 38.3306 -97.3283 255° West 400 460 38,000  Level Kansas City Center
Sun 04:50:14 PM 38.2992 -97.4636 254° West 400 460 38,000  Level Kansas City Center
Sun 04:51:16 PM 38.2692 -97.5981 254° West 399 459 38,000  Level Kansas City Center
Sun 04:52:16 PM 38.2336 -97.7594 254° West 399 459 38,000  Level Kansas City Center
Sun 04:53:20 PM 38.1853 -97.8850 244° Southwest 399 459 38,000  Level Kansas City Center
Sun 04:54:21 PM 38.1303 -98.0214 243° Southwest 400 460 38,000  Level Kansas City Center
Sun 04:55:24 PM 38.0728 -98.1558 242° Southwest 401 461 38,000  Level Kansas City Center
Sun 04:56:26 PM 38.0194 -98.2808 242° Southwest 401 461 38,000  Level Kansas City Center
Sun 04:57:26 PM 37.9686 -98.4056 243° Southwest 401 461 38,000  Level Kansas City Center
Sun 04:58:30 PM 37.9178 -98.5322 243° Southwest 402 463 38,000  Level Kansas City Center
Sun 04:59:31 PM 37.8667 -98.6594 243° Southwest 403 464 38,000  Level Kansas City Center
Sun 05:00:35 PM 37.8161 -98.7883 244° Southwest 406 467 38,000  Level Kansas City Center
Sun 05:01:35 PM 37.7536 -98.9392 242° Southwest 406 467 38,000  Level Kansas City Center
Sun 05:02:39 PM 37.7019 -99.0667 243° Southwest 407 468 38,000  Level Kansas City Center
Sun 05:03:39 PM 37.6658 -99.2008 251° West 406 467 38,000  Level Kansas City Center
Sun 05:04:42 PM 37.6372 -99.3364 255° West 405 466 38,000  Level Kansas City Center
Sun 05:05:45 PM 37.6028 -99.4911 254° West 404 465 38,000  Level Kansas City Center
Sun 05:06:46 PM 37.5572 -99.6100 244° Southwest 395 455 38,000  Level Kansas City Center
Sun 05:07:50 PM 37.4847 -99.7408 235° Southwest 402 463 38,000  Level Kansas City Center
Sun 05:08:51 PM 37.4233 -99.8528 235° Southwest 402 463 38,000  Level Kansas City Center
Sun 05:09:52 PM 37.3303 -99.9644 224° Southwest 414 476 38,000  Level Kansas City Center
Sun 05:10:55 PM 37.2500 -100.0583 223° Southwest 412 474 38,000  Level Kansas City Center
Sun 05:11:56 PM 37.1558 -100.1681 223° Southwest 412 474 38,000  Level Kansas City Center
Sun 05:13:00 PM 37.0753 -100.2622 223° Southwest 412 474 38,000  Level Kansas City Center
Sun 05:14:01 PM 37.0261 -100.3781 242° Southwest 405 466 38,000  Level Kansas City Center
Sun 05:15:01 PM 36.9972 -100.5297 257° West 401 461 38,000  Level Kansas City Center
Sun 05:16:06 PM 36.9722 -100.6594 256° West 401 461 38,000  Level Kansas City Center
Sun 05:17:07 PM 36.9417 -100.8111 256° West 401 461 38,000  Level Kansas City Center
Sun 05:18:08 PM 36.9156 -100.9383 256° West 400 460 38,000  Level Kansas City Center
Sun 05:19:12 PM 36.8858 -101.0867 256° West 397 457 38,000  Level Kansas City Center
Sun 05:20:12 PM 36.8603 -101.2117 256° West 393 452 38,000  Level Kansas City Center
Sun 05:21:16 PM 36.8317 -101.3589 256° West 392 451 38,000  Level Kansas City Center
Sun 05:22:17 PM 36.8058 -101.4861 256° West 392 451 38,000  Level Kansas City Center
Sun 05:23:19 PM 36.7800 -101.6142 256° West 393 452 38,000  Level Kansas City Center
Sun 05:24:22 PM 36.7497 -101.7628 256° West 393 452 38,000  Level Kansas City Center
Sun 05:25:24 PM 36.7233 -101.8903 256° West 394 453 38,000  Level Kansas City Center
Sun 05:26:25 PM 36.6919 -102.0375 255° West 394 453 38,000  Level Kansas City Center
Sun 05:27:28 PM 36.6653 -102.1647 255° West 394 453 38,000  Level Kansas City Center
Sun 05:28:29 PM 36.6358 -102.3133 256° West 394 453 38,000  Level Kansas City Center
Sun 05:29:32 PM 36.6089 -102.4328 254° West 394 453 38,000  Level Kansas City Center
Sun 05:30:57 PM 36.5639 -102.6486 256° West 401 461 38,000  Level Albuquerque Center
Sun 05:31:59 PM 36.5344 -102.7833 255° West 403 464 38,000  Level Albuquerque Center
Sun 05:33:01 PM 36.5050 -102.9261 256° West 403 464 38,000  Level Albuquerque Center
Sun 05:34:03 PM 36.4758 -103.0631 255° West 404 465 38,000  Level Albuquerque Center
Sun 05:35:05 PM 36.4456 -103.1961 254° West 403 464 38,000  Level Albuquerque Center
Sun 05:36:07 PM 36.4167 -103.3325 255° West 403 464 38,000  Level Albuquerque Center
Sun 05:37:09 PM 36.3872 -103.4664 255° West 403 464 38,000  Level Albuquerque Center
Sun 05:38:11 PM 36.3514 -103.6200 254° West 401 461 38,000  Level Albuquerque Center
Sun 05:39:13 PM 36.3225 -103.7544 255° West 401 461 38,000  Level Albuquerque Center
Sun 05:40:15 PM 36.2922 -103.8856 254° West 399 459 38,000  Level Albuquerque Center
Sun 05:41:17 PM 36.2625 -104.0186 255° West 398 458 38,000  Level Albuquerque Center
Sun 05:42:18 PM 36.2314 -104.1514 254° West 398 458 38,000  Level Albuquerque Center
Sun 05:43:20 PM 36.2017 -104.2814 254° West 397 457 38,000  Level Albuquerque Center
Sun 05:44:23 PM 36.1714 -104.4111 254° West 395 455 38,000  Level Albuquerque Center
Sun 05:45:24 PM 36.1369 -104.5642 254° West 394 453 38,000  Level Albuquerque Center
Sun 05:46:26 PM 36.1061 -104.6942 254° West 394 453 38,000  Level Albuquerque Center
Sun 05:47:28 PM 36.0758 -104.8236 254° West 393 452 38,000  Level Albuquerque Center
Sun 05:48:30 PM 36.0428 -104.9575 253° West 399 459 38,000  Level Albuquerque Center
Sun 05:49:32 PM 36.0122 -105.0889 254° West 399 459 38,000  Level Albuquerque Center
Sun 05:50:34 PM 35.9808 -105.2194 253° West 398 458 38,000  Level Albuquerque Center
Sun 05:51:36 PM 35.9486 -105.3525 253° West 398 458 38,000  Level Albuquerque Center
Sun 05:52:37 PM 35.9131 -105.5058 254° West 398 458 38,000  Level Albuquerque Center
Sun 05:53:39 PM 35.8811 -105.6361 253° West 398 458 38,000  Level Albuquerque Center
Sun 05:54:41 PM 35.8478 -105.7686 253° West 402 463 38,000  Level Albuquerque Center
Sun 05:55:43 PM 35.8172 -105.8975 254° West 401 461 38,000  Level Albuquerque Center
Sun 05:56:45 PM 35.7875 -106.0247 254° West 390 449 38,000  Level Albuquerque Center
Sun 05:57:47 PM 35.7564 -106.1494 253° West 389 448 38,000  Level Albuquerque Center
Sun 05:58:48 PM 35.7194 -106.2900 252° West 386 444 38,000  Level Albuquerque Center
Sun 05:59:50 PM 35.6861 -106.4247 253° West 385 443 38,000  Level Albuquerque Center
Sun 06:00:52 PM 35.6542 -106.5561 253° West 390 449 38,000  Level Albuquerque Center
Sun 06:01:54 PM 35.6200 -106.6892 253° West 391 450 38,000  Level Albuquerque Center
Sun 06:02:56 PM 35.5881 -106.8150 253° West 389 448 38,000  Level Albuquerque Center
Sun 06:03:58 PM 35.5556 -106.9400 252° West 387 445 38,000  Level Albuquerque Center
Sun 06:05:00 PM 35.5217 -107.0717 252° West 381 438 38,000  Level Albuquerque Center
Sun 06:06:02 PM 35.4908 -107.1944 253° West 381 438 38,000 -290 Level Albuquerque Center
Sun 06:07:04 PM 35.4614 -107.3131 253° West 381 438 37,400 -829 Descending Albuquerque Center
Sun 06:08:05 PM 35.4253 -107.4519 252° West 381 438 36,300 -683 Descending Albuquerque Center
Sun 06:09:07 PM 35.3939 -107.5714 252° West 382 440 36,000 -145 Descending Albuquerque Center
Sun 06:10:09 PM 35.3561 -107.7103 252° West 384 442 36,000  Level Albuquerque Center
Sun 06:11:11 PM 35.3264 -107.8275 253° West 382 440 36,000  Level Albuquerque Center
Sun 06:12:13 PM 35.2892 -107.9669 252° West 382 440 36,000  Level Albuquerque Center
Sun 06:13:15 PM 35.2569 -108.0878 252° West 384 442 36,000  Level Albuquerque Center
Sun 06:14:17 PM 35.2250 -108.2072 252° West 384 442 36,000 -532 Level Albuquerque Center
Sun 06:15:19 PM 35.1881 -108.3472 252° West 384 442 34,900 -968 Descending Albuquerque Center
Sun 06:16:21 PM 35.1556 -108.4647 251° West 384 442 34,000 -432 Descending Albuquerque Center
Sun 06:17:24 PM 35.1194 -108.5992 252° West 377 434 34,000  Level Albuquerque Center
Sun 06:18:25 PM 35.0883 -108.7150 252° West 376 433 34,000  Level Albuquerque Center
Sun 06:19:27 PM 35.0503 -108.8506 251° West 376 433 34,000  Level Albuquerque Center
Sun 06:20:29 PM 35.0167 -108.9639 250° West 376 433 34,000  Level Albuquerque Center
Sun 06:21:31 PM 34.9708 -109.0942 247° West 375 432 34,000  Level Albuquerque Center
Sun 06:22:33 PM 34.9325 -109.2092 248° West 376 433 34,000  Level Albuquerque Center
Sun 06:23:35 PM 34.8869 -109.3419 247° West 376 433 34,000  Level Albuquerque Center
Sun 06:24:37 PM 34.8472 -109.4556 247° West 377 434 34,000  Level Albuquerque Center
Sun 06:25:39 PM 34.8083 -109.5683 247° West 377 434 34,000  Level Albuquerque Center
Sun 06:26:41 PM 34.7625 -109.6997 247° West 377 434 34,000  Level Albuquerque Center
Sun 06:27:44 PM 34.7242 -109.8122 248° West 377 434 34,000  Level Albuquerque Center
Sun 06:28:46 PM 34.6778 -109.9408 246° West 376 433 34,000  Level Albuquerque Center
Sun 06:29:48 PM 34.6361 -110.0517 245° Southwest 375 432 34,000  Level Albuquerque Center
Sun 06:30:50 PM 34.5911 -110.1872 248° West 382 440 34,000  Level Albuquerque Center
Sun 06:31:52 PM 34.5497 -110.2975 246° West 381 438 34,000 -581 Level Albuquerque Center
Sun 06:32:54 PM 34.4997 -110.4142 243° Southwest 374 430 32,800 -1,548 Descending Albuquerque Center
Sun 06:33:56 PM 34.4600 -110.5294 247° West 374 430 30,800 -1,887 Descending Albuquerque Center
Sun 06:34:58 PM 34.4203 -110.6347 245° Southwest 353 406 28,900 -1,839 Descending Albuquerque Center
Sun 06:36:00 PM 34.3767 -110.7372 243° Southwest 348 400 27,000 -2,032 Descending Albuquerque Center
Sun 06:37:02 PM 34.3125 -110.8494 235° Southwest 344 396 24,700 -1,984 Descending Albuquerque Center
Sun 06:38:04 PM 34.2489 -110.9328 227° Southwest 340 391 22,900 -1,742 Descending Albuquerque Center
Sun 06:39:06 PM 34.1867 -111.0111 226° Southwest 330 380 21,100 -1,742 Descending Albuquerque Center
Sun 06:40:08 PM 34.1278 -111.0897 228° Southwest 323 372 19,300 -1,790 Descending Albuquerque Center
Sun 06:41:10 PM 34.0700 -111.1644 227° Southwest 313 360 17,400 -1,790 Descending Albuquerque Center
Sun 06:42:12 PM 34.0122 -111.2375 226° Southwest 306 352 15,600 -1,694 Descending Albuquerque Center
Sun 06:43:14 PM 33.9564 -111.3089 227° Southwest 297 342 13,900 -1,597 Descending Albuquerque Center
Sun 06:44:16 PM 33.8883 -111.3958 227° Southwest 296 341 12,300 -1,403 Descending Albuquerque Center
Sun 06:45:18 PM 33.8261 -111.4531 217° Southwest 283 326 11,000 -1,016 Descending Albuquerque Center
Sun 06:46:20 PM 33.7631 -111.5078 216° Southwest 281 323 10,200 -919 Descending Albuquerque Center
Sun 06:47:22 PM 33.7022 -111.5594 215° Southwest 270 311 9,100 -774 Descending Albuquerque Center
Sun 06:48:24 PM 33.6442 -111.6092 215° Southwest 257 296 8,600 -774 Descending Albuquerque Center
Sun 06:49:26 PM 33.5919 -111.6522 214° Southwest 233 268 7,500 -1,065 Descending Albuquerque Center
Sun 06:50:28 PM 33.5400 -111.6961 215° Southwest 229 264 6,400 -1,161 Descending Albuquerque Center
Sun 06:51:30 PM 33.4928 -111.7642 230° Southwest 229 264 5,100 -1,113 Descending Albuquerque Center
Sun 06:52:32 PM 33.4636 -111.8292 242° Southwest 224 258 4,100 -1,065 Descending Albuquerque Center
Sun 06:53:34 PM 33.4400 -111.8839 243° Southwest 190 219 2,900 -1,050 Descending Albuquerque Center
Sun 06:54:32 PM 33.4333 -111.9333 261° West 155 178 2,000 -931 Descending Phoenix TRACON
Sun 06:57:00 PM 33.4333 -112.0000 260° West  Level FlightAware Approximate

Login

Don't have an account? Register now (free) for customized features, flight alerts, and more!